SQP6102 EPKK-EYVI
Flight info
| Callsign | SQP6102 |
|---|---|
| Flight time | 0h 57m |
| Altitude | 35000 |
| Route | POBOK M985 KOTEK DCT EVODO DCT OFEDE DCT LIZUP DCT DIMTA |
| Aircraft | B738/M-SDE2E3FGHIRWXY/LB1 |
Departure
| Time | 2026-05-07 13:30 |
|---|---|
| Airport | Kraków John Paul II International Airport (EPKK) |
Arrival
| Time | 2026-05-07 14:28 |
|---|---|
| Airport | Vilnius International Airport (EYVI) |
| Time | Latitude | Longitude | Altitude | Speed | Heading |
|---|---|---|---|---|---|
| 2026-05-07 12:19 | 50.07478 | 19.80077 | 799 ft | 0 kts | 168° |
| 2026-05-07 13:26 | 50.07471 | 19.80080 | 799 ft | 6 kts | 168° |
| 2026-05-07 13:26 | 50.07426 | 19.80099 | 799 ft | 6 kts | 149° |
| 2026-05-07 13:26 | 50.07417 | 19.80157 | 799 ft | 5 kts | 78° |
| 2026-05-07 13:26 | 50.07423 | 19.80202 | 799 ft | 4 kts | 78° |
| 2026-05-07 13:27 | 50.07429 | 19.80243 | 799 ft | 4 kts | 78° |
| 2026-05-07 13:27 | 50.07456 | 19.80358 | 799 ft | 15 kts | 42° |
| 2026-05-07 13:27 | 50.07540 | 19.80411 | 799 ft | 10 kts | 19° |
| 2026-05-07 13:27 | 50.07608 | 19.80417 | 799 ft | 10 kts | 347° |
| 2026-05-07 13:28 | 50.07675 | 19.80393 | 799 ft | 10 kts | 348° |
| 2026-05-07 13:28 | 50.07766 | 19.80364 | 799 ft | 15 kts | 348° |
| 2026-05-07 13:28 | 50.07850 | 19.80335 | 799 ft | 12 kts | 347° |
| 2026-05-07 13:28 | 50.07931 | 19.80308 | 799 ft | 12 kts | 348° |
| 2026-05-07 13:29 | 50.08008 | 19.80273 | 799 ft | 11 kts | 323° |
| 2026-05-07 13:29 | 50.08006 | 19.80153 | 800 ft | 17 kts | 257° |
| 2026-05-07 13:29 | 50.07932 | 19.79619 | 800 ft | 86 kts | 257° |
| 2026-05-07 13:29 | 50.07761 | 19.78385 | 802 ft | 145 kts | 258° |
| 2026-05-07 13:30 | 50.07522 | 19.76701 | 1227 ft | 166 kts | 257° |
| 2026-05-07 13:30 | 50.07263 | 19.74849 | 1903 ft | 179 kts | 259° |
| 2026-05-07 13:30 | 50.06996 | 19.72994 | 2793 ft | 176 kts | 258° |
| 2026-05-07 13:30 | 50.06718 | 19.71070 | 3433 ft | 193 kts | 258° |
| 2026-05-07 13:31 | 50.06414 | 19.68906 | 3661 ft | 216 kts | 258° |
| 2026-05-07 13:31 | 50.06443 | 19.66533 | 4126 ft | 228 kts | 284° |
| 2026-05-07 13:31 | 50.07199 | 19.64323 | 4688 ft | 240 kts | 308° |
| 2026-05-07 13:31 | 50.08640 | 19.62781 | 5057 ft | 265 kts | 336° |
| 2026-05-07 13:32 | 50.10455 | 19.62009 | 5810 ft | 275 kts | 344° |
| 2026-05-07 13:32 | 50.12341 | 19.61442 | 6702 ft | 279 kts | 353° |
| 2026-05-07 13:32 | 50.14249 | 19.61878 | 7444 ft | 290 kts | 21° |
| 2026-05-07 13:32 | 50.15943 | 19.63608 | 7860 ft | 291 kts | 40° |
| 2026-05-07 13:33 | 50.17489 | 19.65737 | 7931 ft | 301 kts | 40° |
| 2026-05-07 13:33 | 50.19049 | 19.67913 | 8089 ft | 301 kts | 41° |
| 2026-05-07 13:33 | 50.20622 | 19.70093 | 8841 ft | 303 kts | 41° |
| 2026-05-07 13:33 | 50.22210 | 19.72273 | 9725 ft | 305 kts | 41° |
| 2026-05-07 13:34 | 50.23819 | 19.74473 | 10403 ft | 314 kts | 41° |
| 2026-05-07 13:34 | 50.27325 | 19.79245 | 11023 ft | 353 kts | 41° |
| 2026-05-07 13:34 | 50.29192 | 19.81793 | 11700 ft | 359 kts | 41° |
| 2026-05-07 13:35 | 50.31078 | 19.84370 | 12496 ft | 361 kts | 41° |
| 2026-05-07 13:35 | 50.32974 | 19.86967 | 13252 ft | 365 kts | 41° |
| 2026-05-07 13:35 | 50.34904 | 19.89612 | 13948 ft | 370 kts | 41° |
| 2026-05-07 13:35 | 50.36852 | 19.92283 | 14591 ft | 375 kts | 41° |
| 2026-05-07 13:36 | 50.38826 | 19.94992 | 15237 ft | 379 kts | 41° |
| 2026-05-07 13:36 | 50.40821 | 19.97731 | 15892 ft | 383 kts | 41° |
| 2026-05-07 13:36 | 50.42808 | 20.00463 | 16549 ft | 387 kts | 41° |
| 2026-05-07 13:36 | 50.44845 | 20.03268 | 17190 ft | 391 kts | 41° |
| 2026-05-07 13:37 | 50.46900 | 20.06102 | 17826 ft | 396 kts | 41° |
| 2026-05-07 13:37 | 50.48982 | 20.08978 | 18431 ft | 400 kts | 41° |
| 2026-05-07 13:37 | 50.51080 | 20.11882 | 18979 ft | 404 kts | 41° |
| 2026-05-07 13:37 | 50.53201 | 20.14819 | 19528 ft | 408 kts | 41° |
| 2026-05-07 13:38 | 50.55339 | 20.17784 | 20065 ft | 412 kts | 41° |
| 2026-05-07 13:38 | 50.57483 | 20.20712 | 20596 ft | 416 kts | 38° |
| 2026-05-07 13:38 | 50.60004 | 20.22943 | 21067 ft | 419 kts | 18° |
| 2026-05-07 13:38 | 50.62787 | 20.24313 | 21630 ft | 421 kts | 15° |
| 2026-05-07 13:39 | 50.65565 | 20.25863 | 22108 ft | 427 kts | 24° |
| 2026-05-07 13:39 | 50.68196 | 20.28089 | 22587 ft | 431 kts | 30° |
| 2026-05-07 13:39 | 50.70784 | 20.30532 | 23099 ft | 435 kts | 31° |
| 2026-05-07 13:39 | 50.73368 | 20.33051 | 23571 ft | 439 kts | 31° |
| 2026-05-07 13:40 | 50.75974 | 20.35608 | 23982 ft | 442 kts | 32° |
| 2026-05-07 13:40 | 50.78596 | 20.38168 | 24402 ft | 445 kts | 31° |
| 2026-05-07 13:40 | 50.81244 | 20.40731 | 24811 ft | 448 kts | 31° |
| 2026-05-07 13:40 | 50.83882 | 20.43269 | 25219 ft | 451 kts | 31° |
| 2026-05-07 13:41 | 50.86578 | 20.45851 | 25606 ft | 454 kts | 31° |
| 2026-05-07 13:41 | 50.89293 | 20.48446 | 25999 ft | 457 kts | 31° |
| 2026-05-07 13:41 | 50.92024 | 20.51056 | 26379 ft | 460 kts | 31° |
| 2026-05-07 13:41 | 50.94770 | 20.53682 | 26753 ft | 463 kts | 32° |
| 2026-05-07 13:42 | 50.97540 | 20.56334 | 27124 ft | 466 kts | 32° |
| 2026-05-07 13:42 | 51.00318 | 20.59000 | 27497 ft | 469 kts | 32° |
| 2026-05-07 13:42 | 51.03117 | 20.61689 | 27844 ft | 472 kts | 32° |
| 2026-05-07 13:42 | 51.05895 | 20.64362 | 28184 ft | 474 kts | 32° |
| 2026-05-07 13:43 | 51.08724 | 20.67089 | 28523 ft | 477 kts | 32° |
| 2026-05-07 13:43 | 51.11573 | 20.69839 | 28859 ft | 480 kts | 32° |
| 2026-05-07 13:43 | 51.14436 | 20.72608 | 29188 ft | 482 kts | 32° |
| 2026-05-07 13:43 | 51.17308 | 20.75388 | 29517 ft | 485 kts | 32° |
| 2026-05-07 13:44 | 51.20199 | 20.78191 | 29830 ft | 488 kts | 32° |
| 2026-05-07 13:44 | 51.23104 | 20.81013 | 30104 ft | 490 kts | 32° |
| 2026-05-07 13:44 | 51.26021 | 20.83849 | 30374 ft | 492 kts | 32° |
| 2026-05-07 13:44 | 51.28909 | 20.86661 | 30659 ft | 493 kts | 32° |
| 2026-05-07 13:45 | 51.31835 | 20.89515 | 30934 ft | 494 kts | 32° |
| 2026-05-07 13:45 | 51.34780 | 20.92391 | 31203 ft | 496 kts | 32° |
| 2026-05-07 13:45 | 51.37723 | 20.95270 | 31509 ft | 496 kts | 32° |
| 2026-05-07 13:45 | 51.40665 | 20.98153 | 31876 ft | 495 kts | 32° |
| 2026-05-07 13:46 | 51.43593 | 21.01026 | 32270 ft | 493 kts | 32° |
| 2026-05-07 13:46 | 51.46512 | 21.03895 | 32631 ft | 492 kts | 32° |
| 2026-05-07 13:46 | 51.49428 | 21.06765 | 32944 ft | 492 kts | 32° |
| 2026-05-07 13:46 | 51.52301 | 21.09598 | 33251 ft | 491 kts | 32° |
| 2026-05-07 13:47 | 51.55212 | 21.12472 | 33594 ft | 490 kts | 32° |
| 2026-05-07 13:47 | 51.58112 | 21.15339 | 33922 ft | 489 kts | 32° |
| 2026-05-07 13:47 | 51.61011 | 21.18211 | 34185 ft | 489 kts | 32° |
| 2026-05-07 13:47 | 51.63906 | 21.21082 | 34426 ft | 489 kts | 32° |
| 2026-05-07 13:48 | 51.66800 | 21.23957 | 34673 ft | 489 kts | 32° |
| 2026-05-07 13:48 | 51.69653 | 21.26795 | 34913 ft | 488 kts | 32° |
| 2026-05-07 13:48 | 51.72540 | 21.29671 | 35154 ft | 488 kts | 32° |
| 2026-05-07 13:48 | 51.75427 | 21.32553 | 35387 ft | 488 kts | 32° |
| 2026-05-07 13:49 | 51.78310 | 21.35434 | 35620 ft | 487 kts | 32° |
| 2026-05-07 13:49 | 51.81190 | 21.38317 | 35850 ft | 487 kts | 32° |
| 2026-05-07 13:49 | 51.84068 | 21.41201 | 36089 ft | 486 kts | 32° |
| 2026-05-07 13:49 | 51.86937 | 21.44082 | 36341 ft | 485 kts | 31° |
| 2026-05-07 13:50 | 51.89807 | 21.46967 | 36583 ft | 485 kts | 31° |
| 2026-05-07 13:50 | 51.92628 | 21.49808 | 36784 ft | 485 kts | 31° |
| 2026-05-07 13:50 | 51.95489 | 21.52694 | 36924 ft | 486 kts | 31° |
| 2026-05-07 13:51 | 52.01249 | 21.58516 | 36924 ft | 487 kts | 31° |
| 2026-05-07 13:51 | 52.06978 | 21.64325 | 36909 ft | 483 kts | 31° |
| 2026-05-07 13:52 | 52.12656 | 21.70101 | 36916 ft | 480 kts | 31° |
| 2026-05-07 13:52 | 52.18268 | 21.75826 | 36919 ft | 478 kts | 31° |
| 2026-05-07 13:53 | 52.23896 | 21.81592 | 36929 ft | 478 kts | 31° |
| 2026-05-07 13:53 | 52.29536 | 21.87378 | 36911 ft | 479 kts | 31° |
| 2026-05-07 13:54 | 52.35185 | 21.93195 | 36921 ft | 480 kts | 32° |
| 2026-05-07 13:54 | 52.40849 | 21.99047 | 36915 ft | 482 kts | 31° |
| 2026-05-07 13:55 | 52.46495 | 22.04887 | 36920 ft | 484 kts | 31° |
| 2026-05-07 13:55 | 52.52197 | 22.10809 | 36917 ft | 486 kts | 31° |
| 2026-05-07 13:56 | 52.57919 | 22.16773 | 36909 ft | 487 kts | 31° |
| 2026-05-07 13:56 | 52.63650 | 22.22766 | 36900 ft | 488 kts | 32° |
| 2026-05-07 13:57 | 52.69344 | 22.28739 | 36903 ft | 489 kts | 32° |
| 2026-05-07 13:57 | 52.75072 | 22.34766 | 36897 ft | 489 kts | 32° |
| 2026-05-07 13:58 | 52.80800 | 22.40812 | 36903 ft | 488 kts | 32° |
| 2026-05-07 13:58 | 52.86503 | 22.46851 | 36888 ft | 482 kts | 32° |
| 2026-05-07 13:58 | 52.89282 | 22.49802 | 36869 ft | 467 kts | 32° |
| 2026-05-07 13:59 | 52.91944 | 22.52634 | 36879 ft | 454 kts | 32° |
| 2026-05-07 13:59 | 52.97200 | 22.58233 | 36392 ft | 447 kts | 31° |
| 2026-05-07 13:59 | 52.99838 | 22.61047 | 35478 ft | 458 kts | 32° |
| 2026-05-07 14:00 | 53.02561 | 22.63956 | 34525 ft | 471 kts | 31° |
| 2026-05-07 14:00 | 53.05329 | 22.66918 | 33930 ft | 474 kts | 31° |
| 2026-05-07 14:00 | 53.08094 | 22.69886 | 33552 ft | 470 kts | 31° |
| 2026-05-07 14:00 | 53.10821 | 22.72817 | 33254 ft | 464 kts | 31° |
| 2026-05-07 14:01 | 53.13484 | 22.75684 | 32908 ft | 460 kts | 31° |
| 2026-05-07 14:01 | 53.16159 | 22.78567 | 32500 ft | 457 kts | 31° |
| 2026-05-07 14:01 | 53.18822 | 22.81440 | 32086 ft | 455 kts | 32° |
| 2026-05-07 14:01 | 53.21470 | 22.84302 | 31709 ft | 452 kts | 32° |
| 2026-05-07 14:02 | 53.24095 | 22.87142 | 31356 ft | 448 kts | 32° |
| 2026-05-07 14:02 | 53.26703 | 22.89968 | 31023 ft | 445 kts | 32° |
| 2026-05-07 14:02 | 53.29347 | 22.92616 | 30661 ft | 441 kts | 25° |
| 2026-05-07 14:02 | 53.32160 | 22.94566 | 30297 ft | 436 kts | 15° |
| 2026-05-07 14:03 | 53.35038 | 22.96099 | 29967 ft | 432 kts | 14° |
| 2026-05-07 14:03 | 53.37870 | 22.97546 | 29559 ft | 430 kts | 14° |
| 2026-05-07 14:03 | 53.40720 | 22.98998 | 29157 ft | 427 kts | 14° |
| 2026-05-07 14:03 | 53.43548 | 23.00454 | 28748 ft | 424 kts | 14° |
| 2026-05-07 14:04 | 53.46356 | 23.01920 | 28334 ft | 422 kts | 14° |
| 2026-05-07 14:04 | 53.49149 | 23.03395 | 27945 ft | 419 kts | 14° |
| 2026-05-07 14:04 | 53.51915 | 23.04866 | 27569 ft | 416 kts | 14° |
| 2026-05-07 14:04 | 53.54648 | 23.06327 | 27083 ft | 409 kts | 14° |
| 2026-05-07 14:05 | 53.57354 | 23.07778 | 26468 ft | 407 kts | 14° |
| 2026-05-07 14:05 | 53.60005 | 23.09200 | 25897 ft | 404 kts | 14° |
| 2026-05-07 14:05 | 53.62664 | 23.10630 | 25487 ft | 397 kts | 14° |
| 2026-05-07 14:05 | 53.65276 | 23.12035 | 25125 ft | 392 kts | 14° |
| 2026-05-07 14:06 | 53.67868 | 23.13431 | 24772 ft | 391 kts | 14° |
| 2026-05-07 14:06 | 53.70454 | 23.14823 | 24416 ft | 390 kts | 14° |
| 2026-05-07 14:06 | 53.73035 | 23.16215 | 24048 ft | 389 kts | 14° |
| 2026-05-07 14:06 | 53.75607 | 23.17604 | 23700 ft | 388 kts | 14° |
| 2026-05-07 14:07 | 53.78177 | 23.18994 | 23305 ft | 387 kts | 15° |
| 2026-05-07 14:07 | 53.80702 | 23.20362 | 22911 ft | 385 kts | 15° |
| 2026-05-07 14:07 | 53.83245 | 23.21743 | 22547 ft | 383 kts | 15° |
| 2026-05-07 14:07 | 53.85779 | 23.23120 | 22187 ft | 382 kts | 15° |
| 2026-05-07 14:08 | 53.88324 | 23.24502 | 21847 ft | 390 kts | 15° |
| 2026-05-07 14:08 | 53.90953 | 23.25930 | 21488 ft | 401 kts | 15° |
| 2026-05-07 14:08 | 53.93617 | 23.27384 | 21105 ft | 403 kts | 15° |
| 2026-05-07 14:08 | 53.96282 | 23.28841 | 20718 ft | 402 kts | 15° |
| 2026-05-07 14:09 | 53.98983 | 23.30317 | 20363 ft | 419 kts | 15° |
| 2026-05-07 14:09 | 54.01685 | 23.32189 | 19889 ft | 425 kts | 30° |
| 2026-05-07 14:09 | 54.03886 | 23.35416 | 19520 ft | 413 kts | 51° |
| 2026-05-07 14:09 | 54.05393 | 23.39433 | 19250 ft | 395 kts | 68° |
| 2026-05-07 14:10 | 54.06199 | 23.43803 | 18909 ft | 380 kts | 79° |
| 2026-05-07 14:10 | 54.06774 | 23.48129 | 18565 ft | 370 kts | 80° |
| 2026-05-07 14:10 | 54.07341 | 23.52344 | 18215 ft | 361 kts | 77° |
| 2026-05-07 14:10 | 54.08186 | 23.56316 | 17895 ft | 352 kts | 68° |
| 2026-05-07 14:11 | 54.09173 | 23.60090 | 17509 ft | 345 kts | 66° |
| 2026-05-07 14:11 | 54.10171 | 23.63754 | 17168 ft | 337 kts | 66° |
| 2026-05-07 14:11 | 54.11133 | 23.67290 | 16845 ft | 329 kts | 67° |
| 2026-05-07 14:11 | 54.12076 | 23.70796 | 16517 ft | 322 kts | 67° |
| 2026-05-07 14:12 | 54.12989 | 23.74234 | 16215 ft | 315 kts | 67° |
| 2026-05-07 14:12 | 54.13876 | 23.77604 | 15917 ft | 308 kts | 68° |
| 2026-05-07 14:12 | 54.14742 | 23.80918 | 15618 ft | 304 kts | 68° |
| 2026-05-07 14:12 | 54.15596 | 23.84203 | 15342 ft | 302 kts | 68° |
| 2026-05-07 14:13 | 54.16443 | 23.87468 | 15059 ft | 300 kts | 68° |
| 2026-05-07 14:13 | 54.17272 | 23.90675 | 14776 ft | 299 kts | 68° |
| 2026-05-07 14:13 | 54.18110 | 23.93918 | 14489 ft | 298 kts | 68° |
| 2026-05-07 14:13 | 54.18942 | 23.97147 | 14199 ft | 297 kts | 68° |
| 2026-05-07 14:14 | 54.19778 | 24.00397 | 13916 ft | 303 kts | 68° |
| 2026-05-07 14:14 | 54.20633 | 24.03724 | 13589 ft | 307 kts | 68° |
| 2026-05-07 14:14 | 54.21483 | 24.07034 | 13250 ft | 301 kts | 68° |
| 2026-05-07 14:14 | 54.22313 | 24.10274 | 12934 ft | 294 kts | 68° |
| 2026-05-07 14:15 | 54.23124 | 24.13439 | 12645 ft | 287 kts | 68° |
| 2026-05-07 14:15 | 54.23915 | 24.16537 | 12362 ft | 281 kts | 68° |
| 2026-05-07 14:15 | 54.24679 | 24.19532 | 12091 ft | 277 kts | 68° |
| 2026-05-07 14:15 | 54.25444 | 24.22529 | 11845 ft | 274 kts | 68° |
| 2026-05-07 14:16 | 54.26205 | 24.25518 | 11594 ft | 273 kts | 67° |
| 2026-05-07 14:16 | 54.26961 | 24.28494 | 11332 ft | 273 kts | 68° |
| 2026-05-07 14:16 | 54.27715 | 24.31467 | 11074 ft | 272 kts | 68° |
| 2026-05-07 14:16 | 54.28458 | 24.34445 | 10815 ft | 272 kts | 69° |
| 2026-05-07 14:17 | 54.29133 | 24.37472 | 10556 ft | 272 kts | 71° |
| 2026-05-07 14:17 | 54.29784 | 24.40516 | 10295 ft | 273 kts | 71° |
| 2026-05-07 14:17 | 54.30431 | 24.43572 | 10031 ft | 274 kts | 71° |
| 2026-05-07 14:17 | 54.31076 | 24.46612 | 9759 ft | 275 kts | 71° |
| 2026-05-07 14:18 | 54.31725 | 24.49665 | 9460 ft | 271 kts | 71° |
| 2026-05-07 14:18 | 54.32372 | 24.52699 | 9199 ft | 273 kts | 71° |
| 2026-05-07 14:18 | 54.33046 | 24.55867 | 8945 ft | 292 kts | 71° |
| 2026-05-07 14:18 | 54.33749 | 24.59174 | 8635 ft | 297 kts | 70° |
| 2026-05-07 14:19 | 54.34454 | 24.62475 | 8328 ft | 291 kts | 71° |
| 2026-05-07 14:19 | 54.35141 | 24.65701 | 8026 ft | 284 kts | 71° |
| 2026-05-07 14:19 | 54.35801 | 24.68808 | 7755 ft | 278 kts | 71° |
| 2026-05-07 14:19 | 54.36421 | 24.71897 | 7465 ft | 271 kts | 78° |
| 2026-05-07 14:20 | 54.36767 | 24.75030 | 7217 ft | 264 kts | 82° |
| 2026-05-07 14:20 | 54.37072 | 24.78086 | 6970 ft | 258 kts | 82° |
| 2026-05-07 14:20 | 54.37369 | 24.81099 | 6728 ft | 254 kts | 82° |
| 2026-05-07 14:20 | 54.37662 | 24.84076 | 6492 ft | 253 kts | 82° |
| 2026-05-07 14:21 | 54.37953 | 24.87041 | 6256 ft | 251 kts | 82° |
| 2026-05-07 14:21 | 54.38238 | 24.89983 | 5997 ft | 249 kts | 82° |
| 2026-05-07 14:21 | 54.38515 | 24.92870 | 5768 ft | 248 kts | 82° |
| 2026-05-07 14:21 | 54.38792 | 24.95777 | 5532 ft | 246 kts | 82° |
| 2026-05-07 14:22 | 54.39067 | 24.98698 | 5325 ft | 251 kts | 82° |
| 2026-05-07 14:22 | 54.39509 | 25.01620 | 5147 ft | 257 kts | 59° |
| 2026-05-07 14:22 | 54.40749 | 25.03720 | 4984 ft | 252 kts | 29° |
| 2026-05-07 14:22 | 54.42181 | 25.05489 | 4730 ft | 258 kts | 43° |
| 2026-05-07 14:23 | 54.43411 | 25.07747 | 4502 ft | 259 kts | 45° |
| 2026-05-07 14:23 | 54.44628 | 25.10007 | 4231 ft | 254 kts | 45° |
| 2026-05-07 14:23 | 54.45813 | 25.12197 | 3996 ft | 246 kts | 45° |
| 2026-05-07 14:23 | 54.46932 | 25.14272 | 3854 ft | 232 kts | 45° |
| 2026-05-07 14:24 | 54.48008 | 25.16268 | 3520 ft | 226 kts | 45° |
| 2026-05-07 14:24 | 54.49070 | 25.18162 | 3275 ft | 213 kts | 37° |
| 2026-05-07 14:24 | 54.50317 | 25.19368 | 3085 ft | 202 kts | 21° |
| 2026-05-07 14:24 | 54.51577 | 25.20338 | 2911 ft | 194 kts | 20° |
| 2026-05-07 14:25 | 54.52786 | 25.21198 | 2688 ft | 182 kts | 19° |
| 2026-05-07 14:25 | 54.53914 | 25.21979 | 2466 ft | 165 kts | 18° |
| 2026-05-07 14:25 | 54.54974 | 25.22713 | 2221 ft | 163 kts | 18° |
| 2026-05-07 14:25 | 54.56001 | 25.23430 | 2020 ft | 157 kts | 18° |
| 2026-05-07 14:26 | 54.57003 | 25.24127 | 1808 ft | 168 kts | 19° |
| 2026-05-07 14:26 | 54.58119 | 25.24918 | 1621 ft | 169 kts | 20° |
| 2026-05-07 14:26 | 54.59172 | 25.25656 | 1341 ft | 158 kts | 17° |
| 2026-05-07 14:26 | 54.60165 | 25.26348 | 1093 ft | 161 kts | 19° |
| 2026-05-07 14:27 | 54.61220 | 25.27066 | 868 ft | 157 kts | 19° |
| 2026-05-07 14:27 | 54.62242 | 25.27768 | 658 ft | 156 kts | 18° |
| 2026-05-07 14:27 | 54.63192 | 25.28419 | 605 ft | 130 kts | 23° |
| 2026-05-07 14:27 | 54.63824 | 25.28862 | 634 ft | 69 kts | 22° |
| 2026-05-07 14:28 | 54.64142 | 25.29082 | 648 ft | 43 kts | 22° |
| 2026-05-07 14:28 | 54.64378 | 25.29246 | 655 ft | 25 kts | 21° |
| 2026-05-07 14:28 | 54.64481 | 25.29193 | 657 ft | 17 kts | 295° |
| 2026-05-07 14:28 | 54.64514 | 25.29065 | 659 ft | 6 kts | 294° |
| 2026-05-07 14:29 | 54.64517 | 25.29052 | 659 ft | 0 kts | 290° |
| 2026-05-07 14:29 | 54.64532 | 25.29007 | 658 ft | 7 kts | 301° |
| 2026-05-07 14:29 | 54.64557 | 25.28925 | 656 ft | 8 kts | 291° |
| 2026-05-07 14:29 | 54.64555 | 25.28820 | 660 ft | 10 kts | 259° |
| 2026-05-07 14:30 | 54.64545 | 25.28733 | 654 ft | 4 kts | 258° |
| 2026-05-07 14:30 | 54.64541 | 25.28701 | 656 ft | 2 kts | 257° |
| 2026-05-07 14:30 | 54.64539 | 25.28683 | 654 ft | 3 kts | 258° |
| 2026-05-07 14:30 | 54.64501 | 25.28620 | 651 ft | 16 kts | 183° |
| 2026-05-07 14:31 | 54.64351 | 25.28657 | 649 ft | 24 kts | 172° |
| 2026-05-07 14:31 | 54.64226 | 25.28652 | 647 ft | 14 kts | 225° |
| 2026-05-07 14:31 | 54.64213 | 25.28513 | 642 ft | 9 kts | 266° |
| 2026-05-07 14:31 | 54.64204 | 25.28378 | 638 ft | 12 kts | 248° |
| 2026-05-07 14:32 | 54.64183 | 25.28292 | 641 ft | 2 kts | 306° |
| 2026-05-07 14:32 | 54.64198 | 25.28282 | 640 ft | 0 kts | 352° |
| 2026-05-07 14:33 | 54.64211 | 25.28282 | 638 ft | 4 kts | 359° |
| 2026-05-07 14:33 | 54.64236 | 25.28281 | 638 ft | 3 kts | 359° |
| 2026-05-07 14:33 | 54.64245 | 25.28281 | 641 ft | 0 kts | 360° |